Time;durP1;ratioP1;P1;durP2;ratioP2;P2;SDS_P1;SDS_P2;PMS_P1;PMS_P2;Temp;Humidity;BMP_temperature;BMP_pressure;BME280_temperature;BME280_humidity;BME280_pressure;Samples;Min_cycle;Max_cycle;Signal;HPM_P1;HPM_P2
2024/01/01 00:00:13;;;;;;;71.35;49.72;;;;;;;;;;5073489;28;20043;-72
2024/01/01 00:02:39;;;;;;;63.08;45.30;;;;;;;;;;5074532;28;20041;-72
2024/01/01 00:05:06;;;;;;;61.70;43.15;;;;;;;;;;5073299;28;20493;-72
2024/01/01 00:07:32;;;;;;;56.35;37.78;;;;;;;;;;5074807;28;20044;-72
2024/01/01 00:09:58;;;;;;;50.78;35.75;;;;;;;;;;5073316;28;20094;-72
2024/01/01 00:12:24;;;;;;;50.60;35.97;;;;;;;;;;5073110;28;20055;-72
2024/01/01 00:14:50;;;;;;;57.00;34.78;;;;;;;;;;5073136;28;20040;-73
2024/01/01 00:17:16;;;;;;;48.72;32.60;;;;;;;;;;5073375;28;20535;-73
2024/01/01 00:19:42;;;;;;;49.13;32.10;;;;;;;;;;5073420;28;20036;-73
2024/01/01 00:22:08;;;;;;;46.97;28.00;;;;;;;;;;5074496;28;20071;-72
2024/01/01 00:24:33;;;;;;;41.03;26.30;;;;;;;;;;5074492;28;20543;-72
2024/01/01 00:27:00;;;;;;;36.67;21.92;;;;;;;;;;5056507;28;20118;-72
2024/01/01 00:29:26;;;;;;;41.67;23.45;;;;;;;;;;5073294;28;20044;-72
2024/01/01 00:31:52;;;;;;;31.67;20.05;;;;;;;;;;5072842;28;20049;-73
2024/01/01 00:34:18;;;;;;;29.27;17.42;;;;;;;;;;5072701;28;20040;-73
2024/01/01 00:36:45;;;;;;;31.27;17.65;;;;;;;;;;5072753;28;20055;-73
2024/01/01 00:39:11;;;;;;;28.13;15.95;;;;;;;;;;5072759;28;20040;-73
2024/01/01 00:41:37;;;;;;;26.70;15.43;;;;;;;;;;5073870;28;20503;-73
2024/01/01 00:44:03;;;;;;;28.15;16.23;;;;;;;;;;5072569;28;20127;-73
2024/01/01 00:46:29;;;;;;;25.70;16.35;;;;;;;;;;5072597;28;20040;-73
2024/01/01 00:48:55;;;;;;;30.98;17.13;;;;;;;;;;5072518;28;20040;-73
2024/01/01 00:51:21;;;;;;;38.03;19.58;;;;;;;;;;5072687;28;20086;-73
2024/01/01 00:53:47;;;;;;;33.47;20.63;;;;;;;;;;5072409;28;20044;-73
2024/01/01 00:56:13;;;;;;;36.47;20.58;;;;;;;;;;5073981;28;20040;-73
2024/01/01 00:58:40;;;;;;;37.70;21.95;;;;;;;;;;5072418;28;20040;-73
2024/01/01 01:01:07;;;;;;;34.50;21.42;;;;;;;;;;5073924;28;20119;-72
2024/01/01 01:03:34;;;;;;;42.15;21.20;;;;;;;;;;5072354;28;20047;-71
2024/01/01 01:06:00;;;;;;;32.30;19.98;;;;;;;;;;5072161;28;20044;-72
2024/01/01 01:08:26;;;;;;;34.22;21.50;;;;;;;;;;5072180;28;20041;-71
2024/01/01 01:10:52;;;;;;;36.10;19.83;;;;;;;;;;5072337;28;20493;-72
2024/01/01 01:13:18;;;;;;;36.95;19.90;;;;;;;;;;5073942;28;20044;-71
2024/01/01 01:15:44;;;;;;;27.52;17.65;;;;;;;;;;5072296;28;20048;-71
2024/01/01 01:18:10;;;;;;;28.65;18.23;;;;;;;;;;5072078;28;20409;-71
2024/01/01 01:20:36;;;;;;;30.08;17.40;;;;;;;;;;5071986;28;20048;-71
2024/01/01 01:23:02;;;;;;;31.20;19.27;;;;;;;;;;5072213;28;20075;-71
2024/01/01 01:25:29;;;;;;;28.83;17.27;;;;;;;;;;5071968;28;20049;-71
2024/01/01 01:27:55;;;;;;;31.73;18.40;;;;;;;;;;5071923;28;20106;-71
2024/01/01 01:30:21;;;;;;;29.15;17.95;;;;;;;;;;5072194;28;20040;-71
2024/01/01 01:32:47;;;;;;;30.48;18.25;;;;;;;;;;5073255;28;20161;-71
2024/01/01 01:35:13;;;;;;;28.33;18.10;;;;;;;;;;5073421;28;20248;-71
2024/01/01 01:37:39;;;;;;;28.85;17.38;;;;;;;;;;5073347;28;20036;-71
2024/01/01 01:40:05;;;;;;;28.52;17.45;;;;;;;;;;5073316;28;20175;-71
2024/01/01 01:42:31;;;;;;;28.05;17.50;;;;;;;;;;5071948;28;20052;-71
2024/01/01 01:44:57;;;;;;;27.45;16.73;;;;;;;;;;5071786;28;20055;-71
2024/01/01 01:47:24;;;;;;;31.65;17.13;;;;;;;;;;5071987;28;20052;-71
2024/01/01 01:49:51;;;;;;;28.77;17.98;;;;;;;;;;5071728;28;20094;-71
2024/01/01 01:52:17;;;;;;;31.40;18.05;;;;;;;;;;5071666;28;20049;-71
2024/01/01 01:54:44;;;;;;;30.85;18.55;;;;;;;;;;5071702;28;20582;-71
2024/01/01 01:57:10;;;;;;;27.92;18.88;;;;;;;;;;5073187;28;20040;-71
2024/01/01 01:59:37;;;;;;;29.48;18.73;;;;;;;;;;5073117;28;20045;-71
2024/01/01 02:02:03;;;;;;;27.48;18.98;;;;;;;;;;5071468;28;20062;-71
2024/01/01 02:04:29;;;;;;;30.67;20.60;;;;;;;;;;5071626;28;20143;-71
2024/01/01 02:06:55;;;;;;;32.00;20.60;;;;;;;;;;5073083;28;20405;-71
2024/01/01 02:09:21;;;;;;;31.50;20.38;;;;;;;;;;5071543;28;20493;-71
2024/01/01 02:11:47;;;;;;;31.77;19.67;;;;;;;;;;5071448;28;20097;-71
2024/01/01 02:14:15;;;;;;;32.97;22.70;;;;;;;;;;5072919;28;20037;-71
2024/01/01 02:16:41;;;;;;;34.63;25.13;;;;;;;;;;5071461;28;20158;-71
2024/01/01 02:19:16;;;;;;;42.85;29.92;;;;;;;;;;5073552;28;20072;-71
2024/01/01 02:21:42;;;;;;;32.53;21.17;;;;;;;;;;5077001;28;20115;-71
2024/01/01 02:24:08;;;;;;;22.15;15.20;;;;;;;;;;5075496;28;20044;-71
2024/01/01 02:26:34;;;;;;;23.77;15.32;;;;;;;;;;5076790;28;20045;-71
2024/01/01 02:29:01;;;;;;;26.45;18.95;;;;;;;;;;5075249;28;20076;-71
2024/01/01 02:31:27;;;;;;;24.75;15.27;;;;;;;;;;5076625;28;20552;-71
2024/01/01 02:33:53;;;;;;;24.60;13.98;;;;;;;;;;5076536;28;20068;-71
2024/01/01 02:36:19;;;;;;;28.95;19.30;;;;;;;;;;5075062;28;20043;-71
2024/01/01 02:38:45;;;;;;;23.60;14.80;;;;;;;;;;5075078;28;20052;-72
2024/01/01 02:41:11;;;;;;;29.38;18.85;;;;;;;;;;5076480;28;20093;-72
2024/01/01 02:43:37;;;;;;;20.65;12.40;;;;;;;;;;5074857;28;20124;-71
2024/01/01 02:46:03;;;;;;;22.27;12.20;;;;;;;;;;5075139;28;20135;-71
2024/01/01 02:48:29;;;;;;;18.42;11.35;;;;;;;;;;5076400;28;20040;-71
2024/01/01 02:50:55;;;;;;;24.45;13.70;;;;;;;;;;5075016;28;20052;-71
2024/01/01 02:53:21;;;;;;;21.25;14.48;;;;;;;;;;5076182;28;20098;-71
2024/01/01 02:55:47;;;;;;;22.33;12.60;;;;;;;;;;5076294;28;20040;-71
2024/01/01 02:58:13;;;;;;;18.65;10.85;;;;;;;;;;5075822;28;20493;-71
2024/01/01 03:00:39;;;;;;;19.67;10.45;;;;;;;;;;5074668;28;20052;-71
2024/01/01 03:03:05;;;;;;;27.23;12.23;;;;;;;;;;5074430;28;20076;-71
2024/01/01 03:05:31;;;;;;;21.77;11.73;;;;;;;;;;5074503;28;20033;-71
2024/01/01 03:07:57;;;;;;;34.03;13.88;;;;;;;;;;5076014;28;20241;-71
2024/01/01 03:10:23;;;;;;;51.70;17.13;;;;;;;;;;5074687;28;20041;-71
2024/01/01 03:12:49;;;;;;;61.20;21.23;;;;;;;;;;5075498;28;20497;-71
2024/01/01 03:15:15;;;;;;;82.28;27.80;;;;;;;;;;5074309;28;20124;-71
2024/01/01 03:17:41;;;;;;;95.70;30.67;;;;;;;;;;5074544;28;20032;-71
2024/01/01 03:20:09;;;;;;;63.95;21.92;;;;;;;;;;5074547;28;20036;-71
2024/01/01 03:22:35;;;;;;;47.38;17.80;;;;;;;;;;5074117;28;20398;-71
2024/01/01 03:25:01;;;;;;;44.83;17.45;;;;;;;;;;5075701;28;20047;-71
2024/01/01 03:27:27;;;;;;;28.83;11.55;;;;;;;;;;5075616;28;20044;-71
2024/01/01 03:29:53;;;;;;;29.23;12.60;;;;;;;;;;5074356;28;20041;-71
2024/01/01 03:32:19;;;;;;;29.38;12.63;;;;;;;;;;5075423;28;20040;-71
2024/01/01 03:34:45;;;;;;;36.05;19.00;;;;;;;;;;5074531;28;20048;-71
2024/01/01 03:37:11;;;;;;;48.35;23.50;;;;;;;;;;5073954;28;20520;-71
2024/01/01 03:39:37;;;;;;;42.97;24.60;;;;;;;;;;5074164;28;20036;-71
2024/01/01 03:42:04;;;;;;;46.30;25.23;;;;;;;;;;5075317;28;20114;-71
2024/01/01 03:44:29;;;;;;;38.80;26.30;;;;;;;;;;5073801;28;20043;-71
2024/01/01 03:46:56;;;;;;;38.70;24.55;;;;;;;;;;5075293;28;20078;-71
2024/01/01 03:49:22;;;;;;;40.47;23.70;;;;;;;;;;5073715;28;20040;-72
2024/01/01 03:51:48;;;;;;;34.28;18.63;;;;;;;;;;5074814;28;20405;-71
2024/01/01 03:54:14;;;;;;;24.25;15.50;;;;;;;;;;5073534;28;20040;-71
2024/01/01 03:56:40;;;;;;;27.95;14.20;;;;;;;;;;5073535;28;20040;-71
2024/01/01 03:59:06;;;;;;;26.33;13.52;;;;;;;;;;5074806;28;20028;-71
2024/01/01 04:01:33;;;;;;;25.05;11.73;;;;;;;;;;5073505;28;20094;-71
2024/01/01 04:04:03;;;;;;;19.88;10.30;;;;;;;;;;5074493;28;20044;-71
2024/01/01 04:06:29;;;;;;;19.73;10.35;;;;;;;;;;5074921;28;20047;-71
2024/01/01 04:08:55;;;;;;;21.48;10.13;;;;;;;;;;5073331;28;20127;-71
2024/01/01 04:11:21;;;;;;;21.85;11.60;;;;;;;;;;5074715;28;20036;-71
2024/01/01 04:13:47;;;;;;;20.35;11.25;;;;;;;;;;5074699;28;20041;-71
2024/01/01 04:16:13;;;;;;;22.73;9.90;;;;;;;;;;5074739;28;20036;-71
2024/01/01 04:18:39;;;;;;;18.25;8.80;;;;;;;;;;5074670;28;20397;-71
2024/01/01 04:21:05;;;;;;;13.85;6.90;;;;;;;;;;5073313;28;20132;-71
2024/01/01 04:23:32;;;;;;;18.05;6.45;;;;;;;;;;5074477;28;20040;-71
2024/01/01 04:25:58;;;;;;;14.52;4.63;;;;;;;;;;5073248;28;20076;-71
2024/01/01 04:28:24;;;;;;;11.10;3.53;;;;;;;;;;5072931;28;20500;-71
2024/01/01 04:30:50;;;;;;;7.28;3.03;;;;;;;;;;5074425;28;20032;-71
2024/01/01 04:33:18;;;;;;;8.85;2.65;;;;;;;;;;5074203;28;20489;-70
2024/01/01 04:35:44;;;;;;;7.97;2.83;;;;;;;;;;5072818;28;20056;-71
2024/01/01 04:38:11;;;;;;;10.07;2.92;;;;;;;;;;5072766;28;20040;-71
2024/01/01 04:40:37;;;;;;;12.32;3.00;;;;;;;;;;5073392;28;20047;-71
2024/01/01 04:43:04;;;;;;;13.00;3.05;;;;;;;;;;5073863;28;20119;-70
2024/01/01 04:45:33;;;;;;;11.95;2.95;;;;;;;;;;5072600;28;20044;-70
2024/01/01 04:48:00;;;;;;;10.27;2.92;;;;;;;;;;5072521;28;20416;-70
2024/01/01 04:50:26;;;;;;;13.80;3.50;;;;;;;;;;5074031;28;20086;-71
2024/01/01 04:52:52;;;;;;;13.18;3.42;;;;;;;;;;5073887;28;20570;-71
2024/01/01 04:55:18;;;;;;;12.68;4.55;;;;;;;;;;5072699;28;20044;-71
2024/01/01 04:57:44;;;;;;;15.82;4.72;;;;;;;;;;5072388;28;20504;-71
2024/01/01 05:00:10;;;;;;;16.95;5.15;;;;;;;;;;5072600;28;20101;-71
2024/01/01 05:02:36;;;;;;;14.50;4.90;;;;;;;;;;5072077;28;20051;-71
2024/01/01 05:05:04;;;;;;;16.15;4.45;;;;;;;;;;5073831;28;20041;-71
2024/01/01 05:07:30;;;;;;;12.93;4.35;;;;;;;;;;5072467;28;20044;-71
2024/01/01 05:09:56;;;;;;;16.75;4.10;;;;;;;;;;5072194;28;20463;-71
2024/01/01 05:12:22;;;;;;;14.93;4.10;;;;;;;;;;5073592;28;20119;-71
2024/01/01 05:14:48;;;;;;;12.90;4.15;;;;;;;;;;5072143;28;20412;-71
2024/01/01 05:17:14;;;;;;;15.82;4.05;;;;;;;;;;5072133;28;20090;-71
2024/01/01 05:19:40;;;;;;;15.20;4.35;;;;;;;;;;5073600;28;20033;-71
2024/01/01 05:22:06;;;;;;;20.58;3.90;;;;;;;;;;5073521;28;20516;-71
2024/01/01 05:24:32;;;;;;;15.43;3.40;;;;;;;;;;5073521;28;20108;-71
2024/01/01 05:26:58;;;;;;;15.10;3.70;;;;;;;;;;5073487;28;20036;-71
2024/01/01 05:29:24;;;;;;;16.30;3.85;;;;;;;;;;5071950;28;20043;-71
2024/01/01 05:31:50;;;;;;;13.20;3.92;;;;;;;;;;5073381;28;20067;-71
2024/01/01 05:34:17;;;;;;;15.68;4.40;;;;;;;;;;5055089;28;20489;-71
2024/01/01 05:36:42;;;;;;;13.98;4.18;;;;;;;;;;5072140;28;20051;-72
2024/01/01 05:39:08;;;;;;;15.77;4.38;;;;;;;;;;5073368;28;20419;-71
2024/01/01 05:41:35;;;;;;;13.93;4.65;;;;;;;;;;5073374;28;20067;-71
2024/01/01 05:44:01;;;;;;;17.13;4.75;;;;;;;;;;5071750;28;20044;-71
2024/01/01 05:46:27;;;;;;;17.77;3.88;;;;;;;;;;5073284;28;20037;-71
2024/01/01 05:48:53;;;;;;;17.50;4.18;;;;;;;;;;5071744;28;20041;-71
2024/01/01 05:51:19;;;;;;;16.80;3.60;;;;;;;;;;5072818;28;20062;-71
2024/01/01 05:53:45;;;;;;;14.55;3.47;;;;;;;;;;5074016;28;20040;-71
2024/01/01 05:56:11;;;;;;;11.70;3.00;;;;;;;;;;5075906;28;20052;-71
2024/01/01 05:58:37;;;;;;;14.85;3.05;;;;;;;;;;5076217;28;20041;-71
2024/01/01 06:01:03;;;;;;;11.38;2.83;;;;;;;;;;5075810;28;20040;-71
2024/01/01 06:03:29;;;;;;;15.70;3.40;;;;;;;;;;5076802;28;20040;-71
2024/01/01 06:05:55;;;;;;;8.75;2.55;;;;;;;;;;5058949;28;20055;-71
2024/01/01 06:08:21;;;;;;;17.80;3.20;;;;;;;;;;5075723;28;20036;-72
2024/01/01 06:10:47;;;;;;;14.95;3.55;;;;;;;;;;5077123;28;20164;-72
2024/01/01 06:13:14;;;;;;;12.93;3.28;;;;;;;;;;5076905;28;20072;-71
2024/01/01 06:15:40;;;;;;;15.18;3.78;;;;;;;;;;5076722;28;20484;-72
2024/01/01 06:18:06;;;;;;;11.98;3.60;;;;;;;;;;5075448;28;20074;-72
2024/01/01 06:20:32;;;;;;;10.68;2.90;;;;;;;;;;5075413;28;20045;-71
2024/01/01 06:22:59;;;;;;;12.13;2.75;;;;;;;;;;5076804;28;20059;-71
2024/01/01 06:25:25;;;;;;;14.43;3.25;;;;;;;;;;5075323;28;20048;-71
2024/01/01 06:27:51;;;;;;;11.52;3.00;;;;;;;;;;5075243;28;20051;-71
2024/01/01 06:30:17;;;;;;;13.15;2.65;;;;;;;;;;5075263;28;20048;-71
2024/01/01 06:32:43;;;;;;;17.00;3.15;;;;;;;;;;5076563;28;20047;-71
2024/01/01 06:35:09;;;;;;;11.55;2.80;;;;;;;;;;5075123;28;20409;-71
2024/01/01 06:37:35;;;;;;;13.27;2.58;;;;;;;;;;5075063;28;20516;-71
2024/01/01 06:40:01;;;;;;;9.40;2.83;;;;;;;;;;5075024;28;20041;-71
2024/01/01 06:42:27;;;;;;;9.45;2.95;;;;;;;;;;5074899;28;20040;-71
2024/01/01 06:44:58;;;;;;;13.38;3.30;;;;;;;;;;5074915;28;20059;-71
2024/01/01 06:47:24;;;;;;;12.05;3.08;;;;;;;;;;5074935;28;20123;-71
2024/01/01 06:49:50;;;;;;;13.35;2.65;;;;;;;;;;5076400;28;20127;-72
2024/01/01 06:52:16;;;;;;;12.43;3.38;;;;;;;;;;5076155;28;20044;-72
2024/01/01 06:54:42;;;;;;;14.73;3.30;;;;;;;;;;5074752;28;20045;-72
2024/01/01 06:57:08;;;;;;;12.45;3.42;;;;;;;;;;5076216;28;20174;-71
2024/01/01 06:59:36;;;;;;;14.23;3.05;;;;;;;;;;5074647;28;20409;-72
2024/01/01 07:02:02;;;;;;;9.70;3.20;;;;;;;;;;5075953;28;20129;-72
2024/01/01 07:04:28;;;;;;;10.38;3.20;;;;;;;;;;5075803;28;20080;-72
2024/01/01 07:06:54;;;;;;;12.20;3.25;;;;;;;;;;5075756;28;20089;-71
2024/01/01 07:09:20;;;;;;;10.02;3.30;;;;;;;;;;5074793;28;20124;-71
2024/01/01 07:11:46;;;;;;;13.18;3.10;;;;;;;;;;5074380;28;20611;-71
2024/01/01 07:14:12;;;;;;;11.60;2.83;;;;;;;;;;5074339;28;20037;-71
2024/01/01 07:16:38;;;;;;;8.70;2.90;;;;;;;;;;5074387;28;20036;-71
2024/01/01 07:19:04;;;;;;;14.15;3.30;;;;;;;;;;5075872;28;20408;-72
2024/01/01 07:21:30;;;;;;;12.32;2.78;;;;;;;;;;5075502;28;20500;-72
2024/01/01 07:23:56;;;;;;;10.40;2.63;;;;;;;;;;5075653;28;20079;-71
2024/01/01 07:26:22;;;;;;;11.23;3.03;;;;;;;;;;5074428;28;20072;-71
2024/01/01 07:28:48;;;;;;;10.60;2.90;;;;;;;;;;5075453;28;20512;-71
2024/01/01 07:31:15;;;;;;;9.95;2.40;;;;;;;;;;5074003;28;20032;-71
2024/01/01 07:33:41;;;;;;;9.43;2.60;;;;;;;;;;5075590;28;20444;-71
2024/01/01 07:36:13;;;;;;;7.32;2.10;;;;;;;;;;5073995;28;20543;-71
2024/01/01 07:38:39;;;;;;;7.25;1.98;;;;;;;;;;5073965;28;20036;-71
2024/01/01 07:41:05;;;;;;;9.25;1.70;;;;;;;;;;5073911;28;20041;-71
2024/01/01 07:43:32;;;;;;;10.73;2.42;;;;;;;;;;5073807;28;20051;-71
2024/01/01 07:45:58;;;;;;;8.35;2.15;;;;;;;;;;5073818;28;20083;-71
2024/01/01 07:48:24;;;;;;;8.52;2.50;;;;;;;;;;5074138;28;20086;-71
2024/01/01 07:50:50;;;;;;;10.25;2.53;;;;;;;;;;5075250;28;20049;-71
2024/01/01 07:53:16;;;;;;;14.75;2.97;;;;;;;;;;5073514;28;20048;-71
2024/01/01 07:55:42;;;;;;;12.43;3.40;;;;;;;;;;5073901;28;20047;-71
2024/01/01 07:58:08;;;;;;;14.98;3.50;;;;;;;;;;5073597;28;20408;-71
2024/01/01 08:00:34;;;;;;;11.75;3.33;;;;;;;;;;5073549;28;20043;-71
2024/01/01 08:03:00;;;;;;;14.23;3.55;;;;;;;;;;5074653;28;20040;-71
2024/01/01 08:05:26;;;;;;;11.93;3.33;;;;;;;;;;5073668;28;20044;-71
2024/01/01 08:07:53;;;;;;;11.20;3.60;;;;;;;;;;5074935;28;20481;-71
2024/01/01 08:10:19;;;;;;;16.08;4.10;;;;;;;;;;5074906;28;20116;-71
2024/01/01 08:12:45;;;;;;;11.98;3.33;;;;;;;;;;5073175;28;20147;-71
2024/01/01 08:15:11;;;;;;;17.33;3.75;;;;;;;;;;5074755;28;20044;-71
2024/01/01 08:17:37;;;;;;;18.25;3.90;;;;;;;;;;5072464;28;20114;-71
2024/01/01 08:20:04;;;;;;;17.95;3.72;;;;;;;;;;5074652;28;20044;-71
2024/01/01 08:22:30;;;;;;;15.27;3.78;;;;;;;;;;5074315;28;20040;-71
2024/01/01 08:24:56;;;;;;;14.52;3.85;;;;;;;;;;5073019;28;20106;-71
2024/01/01 08:27:22;;;;;;;13.18;3.53;;;;;;;;;;5074493;28;20044;-71
2024/01/01 08:29:47;;;;;;;14.27;3.88;;;;;;;;;;5056317;28;20132;-71
2024/01/01 08:32:13;;;;;;;13.02;3.20;;;;;;;;;;5072709;28;20097;-71
2024/01/01 08:34:39;;;;;;;15.52;3.10;;;;;;;;;;5074397;28;20037;-71
2024/01/01 08:37:05;;;;;;;14.95;3.75;;;;;;;;;;5074309;28;20123;-71
2024/01/01 08:39:31;;;;;;;19.45;3.80;;;;;;;;;;5074282;28;20508;-71
2024/01/01 08:41:57;;;;;;;16.60;3.80;;;;;;;;;;5072944;28;20087;-72
2024/01/01 08:44:23;;;;;;;20.25;4.93;;;;;;;;;;5072670;28;20516;-72
2024/01/01 08:46:49;;;;;;;12.40;3.53;;;;;;;;;;5074231;28;20032;-72
2024/01/01 08:49:15;;;;;;;11.30;3.55;;;;;;;;;;5074060;28;20493;-71
2024/01/01 08:51:41;;;;;;;18.55;3.88;;;;;;;;;;5055913;28;20122;-71
2024/01/01 08:54:07;;;;;;;14.52;3.78;;;;;;;;;;5073228;28;20044;-71
2024/01/01 08:56:34;;;;;;;20.35;5.00;;;;;;;;;;5072706;28;20040;-71
2024/01/01 08:59:00;;;;;;;17.20;3.80;;;;;;;;;;5072902;28;20432;-71
2024/01/01 09:01:26;;;;;;;12.32;2.95;;;;;;;;;;5073730;28;20520;-72
2024/01/01 09:03:52;;;;;;;10.77;3.00;;;;;;;;;;5072462;28;20067;-72
2024/01/01 09:06:18;;;;;;;15.18;3.40;;;;;;;;;;5074314;28;20075;-71
2024/01/01 09:08:44;;;;;;;15.18;2.85;;;;;;;;;;5072242;28;20041;-72
2024/01/01 09:11:10;;;;;;;13.70;2.90;;;;;;;;;;5072352;28;20037;-73
2024/01/01 09:13:36;;;;;;;12.07;3.40;;;;;;;;;;5075432;28;20048;-74
2024/01/01 09:16:02;;;;;;;15.43;3.08;;;;;;;;;;5073234;28;20040;-74
2024/01/01 09:18:29;;;;;;;11.50;2.80;;;;;;;;;;5072788;28;20040;-74
2024/01/01 09:20:55;;;;;;;14.82;2.67;;;;;;;;;;5074604;28;20048;-74
2024/01/01 09:23:23;;;;;;;9.85;2.60;;;;;;;;;;5072747;28;20521;-74
2024/01/01 09:25:50;;;;;;;14.90;2.67;;;;;;;;;;5072582;28;20051;-74
2024/01/01 09:28:16;;;;;;;15.00;3.22;;;;;;;;;;5055922;28;20131;-74
2024/01/01 09:30:42;;;;;;;15.30;3.80;;;;;;;;;;5072897;28;20075;-74
2024/01/01 09:33:08;;;;;;;16.55;3.28;;;;;;;;;;5074574;28;20409;-74
2024/01/01 09:35:34;;;;;;;15.23;2.92;;;;;;;;;;5075899;28;20069;-74
2024/01/01 09:38:03;;;;;;;15.50;3.33;;;;;;;;;;5077190;28;20428;-74
2024/01/01 09:40:29;;;;;;;13.55;2.97;;;;;;;;;;5076869;28;20485;-74
2024/01/01 09:42:55;;;;;;;15.75;3.03;;;;;;;;;;5075516;28;20051;-74
2024/01/01 09:45:21;;;;;;;14.25;2.97;;;;;;;;;;5077464;28;20071;-74
2024/01/01 09:47:47;;;;;;;12.15;2.83;;;;;;;;;;5074756;28;20412;-74
2024/01/01 09:50:13;;;;;;;13.10;2.83;;;;;;;;;;5076600;28;20048;-74
2024/01/01 09:52:40;;;;;;;16.65;3.20;;;;;;;;;;5058773;28;20048;-74
2024/01/01 09:55:07;;;;;;;15.57;4.00;;;;;;;;;;5076295;28;20045;-74
2024/01/01 09:57:33;;;;;;;11.07;2.88;;;;;;;;;;5074511;28;20059;-74
2024/01/01 10:00:05;;;;;;;15.82;3.03;;;;;;;;;;5058043;28;20040;-74
2024/01/01 10:02:31;;;;;;;15.73;3.17;;;;;;;;;;5073139;28;20048;-74
2024/01/01 10:05:11;;;;;;;15.00;2.95;;;;;;;;;;5056932;28;20094;-74
2024/01/01 10:07:37;;;;;;;13.65;2.78;;;;;;;;;;5074893;28;20486;-74
2024/01/01 10:10:03;;;;;;;11.38;2.10;;;;;;;;;;5075078;28;20070;-73
2024/01/01 10:12:29;;;;;;;14.05;2.88;;;;;;;;;;5072389;28;20404;-73
2024/01/01 10:14:57;;;;;;;13.05;3.05;;;;;;;;;;5073912;28;20069;-73
2024/01/01 10:17:23;;;;;;;15.88;3.17;;;;;;;;;;5072468;28;20123;-73
2024/01/01 10:19:51;;;;;;;11.13;2.47;;;;;;;;;;5072057;28;20036;-73
2024/01/01 10:22:18;;;;;;;15.45;3.00;;;;;;;;;;5072247;28;20045;-73
2024/01/01 10:24:45;;;;;;;14.27;2.40;;;;;;;;;;5055559;28;20048;-73
2024/01/01 10:27:12;;;;;;;13.00;2.72;;;;;;;;;;5073600;28;20466;-73
2024/01/01 10:29:38;;;;;;;14.60;2.83;;;;;;;;;;5072469;28;20071;-73
2024/01/01 10:32:08;;;;;;;14.50;3.20;;;;;;;;;;5073807;28;20512;-73
2024/01/01 10:34:37;;;;;;;13.93;2.38;;;;;;;;;;5073578;28;20408;-73
2024/01/01 10:37:03;;;;;;;14.73;2.55;;;;;;;;;;5072299;28;20040;-73
2024/01/01 10:39:30;;;;;;;15.43;2.30;;;;;;;;;;5074289;28;20041;-73
2024/01/01 10:41:57;;;;;;;11.02;2.17;;;;;;;;;;5076982;28;20044;-73
2024/01/01 10:44:23;;;;;;;12.18;2.15;;;;;;;;;;5075918;28;20044;-73
2024/01/01 10:46:52;;;;;;;10.30;1.92;;;;;;;;;;5075908;28;20405;-73
2024/01/01 10:49:22;;;;;;;10.43;2.15;;;;;;;;;;5076299;28;20090;-73
2024/01/01 10:52:07;;;;;;;12.90;2.22;;;;;;;;;;5075458;28;20111;-74
2024/01/01 10:54:42;;;;;;;11.13;2.00;;;;;;;;;;5075364;28;20085;-74
2024/01/01 10:57:33;;;;;;;11.63;2.25;;;;;;;;;;5059072;28;20072;-73
2024/01/01 11:00:05;;;;;;;11.77;2.53;;;;;;;;;;5078107;28;20525;-73
2024/01/01 11:02:31;;;;;;;15.10;2.38;;;;;;;;;;5076134;28;20082;-73
2024/01/01 11:05:08;;;;;;;15.27;2.20;;;;;;;;;;5077510;28;20040;-73
2024/01/01 11:07:52;;;;;;;12.80;2.25;;;;;;;;;;5075507;28;20051;-73
2024/01/01 11:10:38;;;;;;;15.68;2.33;;;;;;;;;;5075453;28;20048;-73
2024/01/01 11:13:04;;;;;;;14.60;2.88;;;;;;;;;;5074494;28;20127;-73
2024/01/01 11:15:41;;;;;;;14.32;2.33;;;;;;;;;;5075336;28;20040;-73
2024/01/01 11:18:16;;;;;;;16.77;2.72;;;;;;;;;;5075317;28;20040;-73
2024/01/01 11:20:52;;;;;;;10.27;3.00;;;;;;;;;;5075056;28;20036;-73
2024/01/01 11:23:37;;;;;;;14.15;2.38;;;;;;;;;;5058979;28;20084;-73
2024/01/01 11:26:23;;;;;;;14.45;2.90;;;;;;;;;;5075674;28;20171;-73
2024/01/01 11:28:56;;;;;;;9.27;1.95;;;;;;;;;;5075410;28;20040;-73
2024/01/01 11:31:22;;;;;;;;;;;;;;;;;;5058880;28;20036;-73
2024/01/01 11:34:00;;;;;;;12.02;2.35;;;;;;;;;;5058036;28;19947;-73
2024/01/01 11:36:29;;;;;;;17.55;2.20;;;;;;;;;;5058082;28;20139;-73
2024/01/01 11:38:55;;;;;;;18.98;2.65;;;;;;;;;;5076537;28;20047;-73
2024/01/01 11:41:25;;;;;;;14.50;2.30;;;;;;;;;;5058240;28;20036;-73
2024/01/01 11:43:51;;;;;;;15.60;2.25;;;;;;;;;;5075874;28;20439;-73
2024/01/01 11:46:27;;;;;;;13.70;2.67;;;;;;;;;;5074122;28;20412;-74
2024/01/01 11:48:57;;;;;;;16.50;3.22;;;;;;;;;;5057459;28;20036;-74
2024/01/01 11:51:24;;;;;;;10.90;1.90;;;;;;;;;;5073166;28;20135;-74
2024/01/01 11:54:10;;;;;;;12.77;2.17;;;;;;;;;;5075052;28;20511;-75
2024/01/01 11:56:37;;;;;;;14.18;2.47;;;;;;;;;;5057133;28;20037;-74
2024/01/01 11:59:04;;;;;;;9.40;2.20;;;;;;;;;;5075405;28;20048;-74
2024/01/01 12:01:31;;;;;;;15.02;2.88;;;;;;;;;;5073853;28;20095;-74
2024/01/01 12:03:59;;;;;;;14.93;2.20;;;;;;;;;;5073361;28;20052;-74
2024/01/01 12:06:25;;;;;;;13.18;2.97;;;;;;;;;;5075960;28;20037;-75
2024/01/01 12:09:01;;;;;;;15.27;2.13;;;;;;;;;;5074338;28;20102;-74
2024/01/01 12:11:27;;;;;;;13.02;2.30;;;;;;;;;;5074497;28;20040;-74
2024/01/01 12:13:56;;;;;;;15.38;2.65;;;;;;;;;;5073896;28;20036;-74
2024/01/01 12:16:24;;;;;;;17.50;3.08;;;;;;;;;;5075053;28;20050;-74
2024/01/01 12:19:00;;;;;;;12.23;2.00;;;;;;;;;;5074280;28;20051;-73
2024/01/01 12:21:36;;;;;;;13.90;2.22;;;;;;;;;;5075243;28;20042;-74
2024/01/01 12:24:03;;;;;;;21.67;2.83;;;;;;;;;;5058517;28;20047;-74
2024/01/01 12:26:31;;;;;;;12.93;2.58;;;;;;;;;;5074558;28;20043;-74
2024/01/01 12:29:17;;;;;;;11.63;2.03;;;;;;;;;;5074410;28;20497;-74
2024/01/01 12:31:44;;;;;;;9.95;1.55;;;;;;;;;;5076103;28;20507;-74
2024/01/01 12:34:14;;;;;;;8.98;1.38;;;;;;;;;;5075269;28;20072;-74
2024/01/01 12:36:41;;;;;;;8.10;2.28;;;;;;;;;;5077188;28;20116;-74
2024/01/01 12:39:07;;;;;;;12.68;2.47;;;;;;;;;;5074399;28;20386;-74
2024/01/01 12:41:33;;;;;;;12.32;2.13;;;;;;;;;;5075987;28;20068;-74
2024/01/01 12:43:59;;;;;;;13.10;1.77;;;;;;;;;;5074583;28;20459;-73
2024/01/01 12:46:26;;;;;;;13.52;2.38;;;;;;;;;;5075470;28;20552;-73
2024/01/01 12:48:52;;;;;;;12.18;2.08;;;;;;;;;;5056396;28;20508;-73
2024/01/01 12:51:20;;;;;;;13.30;2.22;;;;;;;;;;5075718;28;20055;-73
2024/01/01 12:53:46;;;;;;;15.68;3.15;;;;;;;;;;5075237;28;20390;-74
2024/01/01 12:56:12;;;;;;;11.05;2.42;;;;;;;;;;5075037;28;20493;-74
2024/01/01 12:58:40;;;;;;;10.85;1.95;;;;;;;;;;5075458;28;20040;-74
2024/01/01 13:01:06;;;;;;;13.32;2.45;;;;;;;;;;5074996;28;20497;-74
2024/01/01 13:03:32;;;;;;;13.70;1.90;;;;;;;;;;5074056;28;20040;-74
2024/01/01 13:05:58;;;;;;;12.82;2.45;;;;;;;;;;5074359;28;20041;-74
2024/01/01 13:08:24;;;;;;;15.98;2.45;;;;;;;;;;5074925;28;20033;-74
2024/01/01 13:10:50;;;;;;;10.90;2.72;;;;;;;;;;5073689;28;20044;-74
2024/01/01 13:13:16;;;;;;;8.27;1.38;;;;;;;;;;5056893;28;20459;-74
2024/01/01 13:15:42;;;;;;;13.88;1.83;;;;;;;;;;5073389;28;20044;-74
2024/01/01 13:18:08;;;;;;;9.38;1.67;;;;;;;;;;5074409;28;20036;-74
2024/01/01 13:20:34;;;;;;;13.23;3.10;;;;;;;;;;5073966;28;20040;-74
2024/01/01 13:23:00;;;;;;;15.43;2.92;;;;;;;;;;5072587;28;20040;-74
2024/01/01 13:25:26;;;;;;;10.85;1.85;;;;;;;;;;5072618;28;20047;-74
2024/01/01 13:27:52;;;;;;;16.58;2.60;;;;;;;;;;5072654;28;20127;-74
2024/01/01 13:30:18;;;;;;;14.18;2.90;;;;;;;;;;5072436;28;20044;-74
2024/01/01 13:32:44;;;;;;;11.52;2.15;;;;;;;;;;5056146;28;20102;-74
2024/01/01 13:35:10;;;;;;;12.55;2.08;;;;;;;;;;5073401;28;20040;-74
2024/01/01 13:37:37;;;;;;;12.60;2.20;;;;;;;;;;5057047;28;20040;-74
2024/01/01 13:40:04;;;;;;;15.07;1.98;;;;;;;;;;5074021;28;20420;-74
2024/01/01 13:42:30;;;;;;;9.88;1.88;;;;;;;;;;5073455;28;20174;-74
2024/01/01 13:44:56;;;;;;;11.43;1.90;;;;;;;;;;5073541;28;20052;-74
2024/01/01 13:47:22;;;;;;;11.75;2.22;;;;;;;;;;5072989;28;20417;-74
2024/01/01 13:49:48;;;;;;;14.90;3.08;;;;;;;;;;5071994;28;20513;-74
2024/01/01 13:52:14;;;;;;;10.85;2.30;;;;;;;;;;5071831;28;20131;-74
2024/01/01 13:54:41;;;;;;;10.80;2.00;;;;;;;;;;5072083;28;20037;-74
2024/01/01 13:57:07;;;;;;;9.95;2.03;;;;;;;;;;5073381;28;20114;-74
2024/01/01 13:59:33;;;;;;;14.07;2.33;;;;;;;;;;5071838;28;20036;-74
2024/01/01 14:02:01;;;;;;;12.70;1.75;;;;;;;;;;5072221;28;20416;-74
2024/01/01 14:04:28;;;;;;;12.32;2.25;;;;;;;;;;5073640;28;20044;-74
2024/01/01 14:06:54;;;;;;;9.65;1.98;;;;;;;;;;5072573;28;20044;-74
2024/01/01 14:09:20;;;;;;;12.55;2.03;;;;;;;;;;5073029;28;20059;-74
2024/01/01 14:11:48;;;;;;;9.55;1.95;;;;;;;;;;5055263;28;20485;-74
2024/01/01 14:14:14;;;;;;;11.95;1.70;;;;;;;;;;5072349;28;20096;-74
2024/01/01 14:16:45;;;;;;;13.23;2.05;;;;;;;;;;5075898;28;20119;-74
2024/01/01 14:19:11;;;;;;;12.73;2.33;;;;;;;;;;5076087;28;20459;-74
2024/01/01 14:21:37;;;;;;;15.38;2.50;;;;;;;;;;5059467;28;20040;-74
2024/01/01 14:24:03;;;;;;;16.38;2.13;;;;;;;;;;5075711;28;20041;-74
2024/01/01 14:26:29;;;;;;;17.05;2.38;;;;;;;;;;5076223;28;20036;-74